Language: 


Des rapports , des résumés tant et plus, au choix de chacun....


Données Historiques de Météogheer
Journalier Rapport pour Nil La, TWC- Unitée:  Les deux    Impériale   Métrique

Warning: A non-numeric value encountered in /datas/vol1/w4a123858/var/www/legheer.be/meteo3/wu/WU-History.php on line 1400

Warning: mktime() expects parameter 4 to be integer, string given in /datas/vol1/w4a123858/var/www/legheer.be/meteo3/wu/WU-History.php on line 1401

Warning: A non-numeric value encountered in /datas/vol1/w4a123858/var/www/legheer.be/meteo3/wu/WU-History.php on line 1400

Warning: mktime() expects parameter 4 to be integer, string given in /datas/vol1/w4a123858/var/www/legheer.be/meteo3/wu/WU-History.php on line 1401
Suivant Jour »
Journalier Hebdomadaire Mensuel Annuel Sur mesure
  Max: Min: Moyenne:
Température: 58.8 °F /  14.9 °C 51.4 °F /  10.8 °C 54.9 °F /  12.7 °C
Point de rosée: 51.8 °F /  11.0 °C 46.4 °F /  8.0 °C 48.7 °F /  9.3 °C
Humidité: 86% 72% 79%
Vent: 2.9mph /  4.7km/h - 0.3mph /  0.5km/h
Rafales: 5.8mph /  9.3km/h - -
Vent- - West
Pression: 29.9 in /  1011.1 hPa 29.8 in /  1010.0 hPa -
Pluie: 0 in /  0.0 mm    
Historical Graphs
 
 
Données tabulaires pour Nil La, TWC-
Heure Température Point de rosée Pression Vent Vent Rafales Humidité Pluie Taux (Horaire) Conditions
00:09 58.8 °F /  14.9 °C 50 °F /  10.0 °C 29.9in /  1011.1hPa Calm   3.1mph /  5.0km/h 72% 0in /  0.0mm
00:14 58.8 °F /  14.9 °C 50 °F /  10.0 °C 29.9in /  1011.1hPa Calm   3.1mph /  5.0km/h 72% 0in /  0.0mm
00:19 58.8 °F /  14.9 °C 50 °F /  10.0 °C 29.9in /  1011.1hPa Calm   2.7mph /  4.3km/h 72% 0in /  0.0mm
00:34 58.5 °F /  14.7 °C 50 °F /  10.0 °C 29.9in /  1011.1hPa Calm   4mph /  6.4km/h 73% 0in /  0.0mm
00:39 58.3 °F /  14.6 °C 51.8 °F /  11.0 °C 29.9in /  1011.1hPa West 1.6mph /  2.6km/h 4mph /  6.4km/h 75% 0in /  0.0mm
00:49 58.1 °F /  14.5 °C 50 °F /  10.0 °C 29.9in /  1011.1hPa West 0.9mph /  1.4km/h 2.7mph /  4.3km/h 74% 0in /  0.0mm
00:54 57.9 °F /  14.4 °C 50 °F /  10.0 °C 29.9in /  1011.1hPa Calm   2.9mph /  4.7km/h 75% 0in /  0.0mm
00:59 57.9 °F /  14.4 °C 50 °F /  10.0 °C 29.9in /  1011.1hPa Calm   2.9mph /  4.7km/h 75% 0in /  0.0mm
01:09 57.4 °F /  14.1 °C 50 °F /  10.0 °C 29.9in /  1011.1hPa Calm   2.5mph /  4.0km/h 75% 0in /  0.0mm
01:14 57.2 °F /  14.0 °C 50 °F /  10.0 °C 29.9in /  1011.1hPa Calm   2.7mph /  4.3km/h 75% 0in /  0.0mm
01:19 56.8 °F /  13.8 °C 50 °F /  10.0 °C 29.9in /  1011.1hPa West 2.2mph /  3.5km/h 2.7mph /  4.3km/h 76% 0in /  0.0mm
01:29 56.3 °F /  13.5 °C 50 °F /  10.0 °C 29.8in /  1010.0hPa Calm   2.2mph /  3.5km/h 78% 0in /  0.0mm
01:34 56.1 °F /  13.4 °C 48.2 °F /  9.0 °C 29.8in /  1010.0hPa Calm     76% 0in /  0.0mm
01:39 55.9 °F /  13.3 °C 50 °F /  10.0 °C 29.8in /  1010.0hPa Calm     78% 0in /  0.0mm
01:49 55.4 °F /  13.0 °C 48.2 °F /  9.0 °C 29.8in /  1010.0hPa Calm   1.1mph /  1.8km/h 78% 0in /  0.0mm
01:59 54.7 °F /  12.6 °C 48.2 °F /  9.0 °C 29.9in /  1011.1hPa Calm     78% 0in /  0.0mm
02:09 54 °F /  12.2 °C 48.2 °F /  9.0 °C 29.9in /  1011.1hPa Calm     78% 0in /  0.0mm
02:14 53.6 °F /  12.0 °C 48.2 °F /  9.0 °C 29.9in /  1011.1hPa Calm     79% 0in /  0.0mm
02:19 53.4 °F /  11.9 °C 48.2 °F /  9.0 °C 29.9in /  1011.1hPa Calm     80% 0in /  0.0mm
02:29 53.1 °F /  11.7 °C 48.2 °F /  9.0 °C 29.9in /  1011.1hPa Calm     80% 0in /  0.0mm
02:39 52.9 °F /  11.6 °C 48.2 °F /  9.0 °C 29.9in /  1011.1hPa Calm     81% 0in /  0.0mm
02:49 52.9 °F /  11.6 °C 48.2 °F /  9.0 °C 29.9in /  1011.1hPa Calm   0.9mph /  1.4km/h 81% 0in /  0.0mm
02:54 52.9 °F /  11.6 °C 48.2 °F /  9.0 °C 29.9in /  1011.1hPa NW 2.9mph /  4.7km/h 2.9mph /  4.7km/h 83% 0in /  0.0mm
02:59 52.9 °F /  11.6 °C 48.2 °F /  9.0 °C 29.9in /  1011.1hPa Calm   2.9mph /  4.7km/h 82% 0in /  0.0mm
03:09 53.1 °F /  11.7 °C 48.2 °F /  9.0 °C 29.9in /  1011.1hPa Calm   3.4mph /  5.5km/h 83% 0in /  0.0mm
03:19 53.1 °F /  11.7 °C 48.2 °F /  9.0 °C 29.9in /  1011.1hPa West 2.5mph /  4.0km/h 4.3mph /  6.9km/h 84% 0in /  0.0mm
03:24 53.2 °F /  11.8 °C 48.2 °F /  9.0 °C 29.9in /  1011.1hPa Calm   5.8mph /  9.3km/h 84% 0in /  0.0mm
03:29 53.1 °F /  11.7 °C 48.2 °F /  9.0 °C 29.9in /  1011.1hPa Calm   5.8mph /  9.3km/h 83% 0in /  0.0mm
03:34 53.1 °F /  11.7 °C 48.2 °F /  9.0 °C 29.9in /  1011.1hPa Calm   2.9mph /  4.7km/h 83% 0in /  0.0mm
03:39 52.9 °F /  11.6 °C 48.2 °F /  9.0 °C 29.9in /  1011.1hPa Calm   2.9mph /  4.7km/h 82% 0in /  0.0mm
03:49 52.3 °F /  11.3 °C 48.2 °F /  9.0 °C 29.9in /  1011.1hPa Calm     82% 0in /  0.0mm
03:54 52 °F /  11.1 °C 46.4 °F /  8.0 °C 29.9in /  1011.1hPa Calm     82% 0in /  0.0mm
03:59 51.6 °F /  10.9 °C 46.4 °F /  8.0 °C 29.9in /  1011.1hPa Calm     82% 0in /  0.0mm
04:09 51.6 °F /  10.9 °C 48.2 °F /  9.0 °C 29.9in /  1011.1hPa Calm   2.2mph /  3.5km/h 86% 0in /  0.0mm
04:14 51.4 °F /  10.8 °C 46.4 °F /  8.0 °C 29.9in /  1011.1hPa Calm   2.2mph /  3.5km/h 83% 0in /  0.0mm
Données Historique de Météo Turbie

Mise a jour : 22/05/2018 04:16:12
Généré par Cumulus 1.9.4 (1099)